createdAt,value
2017-01-21T00:00:55.695Z,0.49
2017-01-21T00:01:55.272Z,0.44
2017-01-21T00:02:55.644Z,0.44
2017-01-21T00:03:55.387Z,0.33
2017-01-21T00:04:55.632Z,0.35
2017-01-21T00:05:55.259Z,0.26
2017-01-21T00:06:55.686Z,0.1
2017-01-21T00:07:55.511Z,0.08
2017-01-21T00:08:54.775Z,-0.01
2017-01-21T00:09:55.216Z,-0.02
2017-01-21T00:10:55.018Z,-0.02
2017-01-21T00:11:55.394Z,0.12
2017-01-21T00:12:54.949Z,0.15
2017-01-21T00:13:55.331Z,0.19
2017-01-21T00:14:55.296Z,0.12
2017-01-21T00:15:54.865Z,0.15
2017-01-21T00:16:55.247Z,0.1
2017-01-21T00:17:55.208Z,0.13
2017-01-21T00:18:55.185Z,0.05
2017-01-21T00:19:54.755Z,0.13
2017-01-21T00:20:55.123Z,0.02
2017-01-21T00:21:54.698Z,0.13
2017-01-21T00:22:55.070Z,0.08
2017-01-21T00:23:55.085Z,0.01
2017-01-21T00:24:55.017Z,-0.01
2017-01-21T00:25:54.189Z,0.02
2017-01-21T00:26:54.966Z,-0.14
2017-01-21T00:27:54.938Z,-0.12
2017-01-21T00:28:54.909Z,-0.21
2017-01-21T00:29:54.868Z,-0.19
2017-01-21T00:30:54.844Z,-0.32
2017-01-21T00:31:54.018Z,-0.31
2017-01-21T00:32:54.782Z,-0.38
2017-01-21T00:33:54.769Z,-0.39
2017-01-21T00:34:54.728Z,-0.39
2017-01-21T00:35:54.697Z,-0.41
2017-01-21T00:36:54.679Z,-0.41
2017-01-21T00:37:54.642Z,-0.49
2017-01-21T00:38:54.619Z,-0.39
2017-01-21T00:39:54.582Z,-0.39
2017-01-21T00:40:54.557Z,-0.45
2017-01-21T00:41:54.528Z,-0.44
2017-01-21T00:42:54.497Z,-0.49
2017-01-21T00:43:54.522Z,-0.45
2017-01-21T00:44:54.048Z,-0.53
2017-01-21T00:45:54.421Z,-0.52
2017-01-21T00:46:54.030Z,-0.5
2017-01-21T00:47:54.404Z,-0.55
2017-01-21T00:48:54.329Z,-0.52
2017-01-21T00:49:54.297Z,-0.59
2017-01-21T00:50:54.278Z,-0.5
2017-01-21T00:51:54.240Z,-0.49
2017-01-21T00:52:54.215Z,-0.59
2017-01-21T00:53:53.777Z,-0.6
2017-01-21T00:54:53.804Z,-0.65
2017-01-21T00:55:54.123Z,-0.71
2017-01-21T00:56:54.142Z,-0.7
2017-01-21T00:57:54.122Z,-0.71
2017-01-21T00:58:54.037Z,-0.77
2017-01-21T00:59:53.614Z,-0.85
2017-01-21T01:00:53.980Z,-0.78
2017-01-21T01:01:54.017Z,-0.76
2017-01-21T01:02:53.928Z,-0.76
2017-01-21T01:03:53.896Z,-0.78
2017-01-21T01:04:53.861Z,-0.74
2017-01-21T01:05:53.890Z,-0.8
2017-01-21T01:06:53.807Z,-0.81
2017-01-21T01:07:53.385Z,-0.73
2017-01-21T01:08:53.800Z,-0.78
2017-01-21T01:09:53.716Z,-0.8
2017-01-21T01:10:53.698Z,-0.76
2017-01-21T01:11:53.675Z,-0.78
2017-01-21T01:12:53.241Z,-0.86
2017-01-21T01:13:53.232Z,-0.81
2017-01-21T01:14:53.582Z,-0.89
2017-01-21T01:15:53.158Z,-0.85
2017-01-21T01:16:53.118Z,-0.77
2017-01-21T01:17:53.505Z,-0.8
2017-01-21T01:18:52.670Z,-0.77
2017-01-21T01:19:53.035Z,-0.73
2017-01-21T01:20:53.113Z,-0.76
2017-01-21T01:21:53.376Z,-0.73
2017-01-21T01:22:53.347Z,-0.8
2017-01-21T01:23:52.973Z,-0.74
2017-01-21T01:24:53.290Z,-0.77
2017-01-21T01:25:52.863Z,-0.78
2017-01-21T01:26:53.238Z,-0.81
2017-01-21T01:27:53.254Z,-0.81
2017-01-21T01:28:53.181Z,-0.74
2017-01-21T01:29:53.197Z,-0.73
2017-01-21T01:30:53.123Z,-0.65
2017-01-21T01:31:53.085Z,-0.7
2017-01-21T01:32:53.061Z,-0.71
2017-01-21T01:33:52.629Z,-0.73
2017-01-21T01:34:53.052Z,-0.68
2017-01-21T01:35:52.977Z,-0.67
2017-01-21T01:36:52.543Z,-0.71
2017-01-21T01:37:52.917Z,-0.71
2017-01-21T01:38:52.743Z,-0.73
2017-01-21T01:39:52.854Z,-0.73
2017-01-21T01:40:52.825Z,-0.67
2017-01-21T01:41:52.410Z,-0.7
2017-01-21T01:42:52.764Z,-0.68
2017-01-21T01:43:52.393Z,-0.65
2017-01-21T01:44:52.715Z,-0.67
2017-01-21T01:45:52.676Z,-0.71
2017-01-21T01:46:51.861Z,-0.71
2017-01-21T01:47:52.626Z,-0.73
2017-01-21T01:48:52.598Z,-0.77
2017-01-21T01:49:52.218Z,-0.7
2017-01-21T01:50:52.537Z,-0.73
2017-01-21T01:51:52.507Z,-0.74
2017-01-21T01:52:52.084Z,-0.77
2017-01-21T01:53:52.051Z,-0.76
2017-01-21T01:54:52.422Z,-0.74
2017-01-21T01:55:52.402Z,-0.71
2017-01-21T01:56:51.966Z,-0.78
2017-01-21T01:57:52.334Z,-0.78
2017-01-21T01:58:52.366Z,-0.78
2017-01-21T01:59:51.879Z,-0.8
2017-01-21T02:00:51.454Z,-0.83
2017-01-21T02:01:52.217Z,-0.83
2017-01-21T02:02:52.192Z,-0.93
2017-01-21T02:03:52.164Z,-0.83
2017-01-21T02:04:52.141Z,-0.78
2017-01-21T02:05:52.112Z,-0.92
2017-01-21T02:06:52.077Z,-0.86
2017-01-21T02:07:51.648Z,-0.9
2017-01-21T02:08:52.015Z,-0.92
2017-01-21T02:09:51.995Z,-0.86
2017-01-21T02:10:51.969Z,-0.9
2017-01-21T02:11:51.533Z,-0.89
2017-01-21T02:12:51.904Z,-0.86
2017-01-21T02:13:51.875Z,-0.89
2017-01-21T02:14:51.444Z,-0.86
2017-01-21T02:15:51.863Z,-0.92
2017-01-21T02:16:51.789Z,-0.93
2017-01-21T02:17:51.771Z,-0.86
2017-01-21T02:18:51.329Z,-0.89
2017-01-21T02:19:51.354Z,-0.89
2017-01-21T02:20:51.671Z,-0.9
2017-01-21T02:21:51.691Z,-0.86
2017-01-21T02:22:51.617Z,-0.86
2017-01-21T02:23:51.634Z,-0.93
2017-01-21T02:24:51.554Z,-0.9
2017-01-21T02:25:51.534Z,-0.9
2017-01-21T02:26:51.494Z,-0.85
2017-01-21T02:27:51.519Z,-0.85
2017-01-21T02:28:51.445Z,-0.86
2017-01-21T02:29:51.413Z,-0.89
2017-01-21T02:30:51.382Z,-0.8
2017-01-21T02:31:51.364Z,-0.86
2017-01-21T02:32:51.373Z,-0.78
2017-01-21T02:33:50.952Z,-0.78
2017-01-21T02:34:51.270Z,-0.76
2017-01-21T02:35:50.889Z,-0.85
2017-01-21T02:36:51.310Z,-0.76
2017-01-21T02:37:50.985Z,-0.77
2017-01-21T02:38:51.162Z,-0.77
2017-01-21T02:39:50.725Z,-0.89
2017-01-21T02:40:51.103Z,-0.78
2017-01-21T02:41:50.664Z,-0.86
2017-01-21T02:42:50.634Z,-0.86
2017-01-21T02:43:51.006Z,-0.85
2017-01-21T02:44:50.579Z,-0.8
2017-01-21T02:45:50.950Z,-0.86
2017-01-21T02:46:50.520Z,-0.89
2017-01-21T02:47:50.891Z,-0.93
2017-01-21T02:48:50.862Z,-0.92
2017-01-21T02:49:50.853Z,-0.83
2017-01-21T02:50:50.794Z,-0.85
2017-01-21T02:51:49.977Z,-0.89
2017-01-21T02:52:50.746Z,-0.78
2017-01-21T02:53:50.717Z,-0.76
2017-01-21T02:54:49.887Z,-0.78
2017-01-21T02:55:50.658Z,-0.78
2017-01-21T02:56:50.235Z,-0.73
2017-01-21T02:57:50.610Z,-0.81
2017-01-21T02:58:50.571Z,-0.8
2017-01-21T02:59:50.545Z,-0.9
2017-01-21T03:00:50.120Z,-0.8
2017-01-21T03:01:50.481Z,-0.86
2017-01-21T03:02:50.460Z,-0.81
2017-01-21T03:03:50.432Z,-0.89
2017-01-21T03:04:50.000Z,-0.93
2017-01-21T03:05:50.376Z,-0.81
2017-01-21T03:06:50.391Z,-0.9
2017-01-21T03:07:49.910Z,-0.9
2017-01-21T03:08:50.383Z,-0.96
2017-01-21T03:09:50.254Z,-0.96
2017-01-21T03:10:50.230Z,-1.03
2017-01-21T03:11:50.247Z,-0.97
2017-01-21T03:12:49.768Z,-0.99
2017-01-21T03:13:49.743Z,-0.97
2017-01-21T03:14:50.158Z,-0.95
2017-01-21T03:15:50.137Z,-0.93
2017-01-21T03:16:49.660Z,-0.99
2017-01-21T03:17:49.221Z,-1
2017-01-21T03:18:49.993Z,-0.99
2017-01-21T03:19:49.970Z,-0.99
2017-01-21T03:20:49.933Z,-0.97
2017-01-21T03:21:49.911Z,-1.02
2017-01-21T03:22:49.934Z,-1
2017-01-21T03:23:49.877Z,-1
2017-01-21T03:24:49.424Z,-0.93
2017-01-21T03:25:49.792Z,-1
2017-01-21T03:26:49.764Z,-1.07
2017-01-21T03:27:49.730Z,-1.1
2017-01-21T03:28:49.305Z,-1.02
2017-01-21T03:29:49.677Z,-1.14
2017-01-21T03:30:49.695Z,-1.15
2017-01-21T03:31:49.220Z,-1.17
2017-01-21T03:32:49.595Z,-1.13
2017-01-21T03:33:49.563Z,-1.18
2017-01-21T03:34:49.570Z,-1.29
2017-01-21T03:35:49.105Z,-1.28
2017-01-21T03:36:49.474Z,-1.28
2017-01-21T03:37:49.451Z,-1.32
2017-01-21T03:38:49.412Z,-1.39
2017-01-21T03:39:49.390Z,-1.36
2017-01-21T03:40:48.954Z,-1.33
2017-01-21T03:41:49.352Z,-1.32
2017-01-21T03:42:49.299Z,-1.29
2017-01-21T03:43:49.264Z,-1.32
2017-01-21T03:44:49.240Z,-1.44
2017-01-21T03:45:49.465Z,-1.43
2017-01-21T03:46:49.180Z,-1.41
2017-01-21T03:47:49.160Z,-1.46
2017-01-21T03:48:49.129Z,-1.49
2017-01-21T03:49:49.090Z,-1.46
2017-01-21T03:50:49.071Z,-1.49
2017-01-21T03:51:49.038Z,-1.38
2017-01-21T03:52:49.059Z,-1.36
2017-01-21T03:53:48.980Z,-1.32
2017-01-21T03:54:48.545Z,-1.43
2017-01-21T03:55:48.522Z,-1.28
2017-01-21T03:56:48.942Z,-1.46
2017-01-21T03:57:48.473Z,-1.46
2017-01-21T03:58:48.833Z,-1.43
2017-01-21T03:59:48.801Z,-1.39
2017-01-21T04:00:48.769Z,-1.36
2017-01-21T04:01:48.746Z,-1.33
2017-01-21T04:02:48.713Z,-1.43
2017-01-21T04:03:48.680Z,-1.31
2017-01-21T04:04:48.657Z,-1.28
2017-01-21T04:05:48.725Z,-1.18
2017-01-21T04:06:48.200Z,-1.21
2017-01-21T04:07:48.587Z,-1.2
2017-01-21T04:08:48.139Z,-1.21
2017-01-21T04:09:48.516Z,-1.29
2017-01-21T04:10:47.685Z,-1.13
2017-01-21T04:11:48.446Z,-1.23
2017-01-21T04:12:48.021Z,-1.2
2017-01-21T04:13:48.041Z,-1.25
2017-01-21T04:14:48.381Z,-1.29
2017-01-21T04:15:47.947Z,-1.11
2017-01-21T04:16:48.302Z,-1.11
2017-01-21T04:17:47.879Z,-1.15
2017-01-21T04:18:48.252Z,-1.11
2017-01-21T04:19:48.229Z,-1.14
2017-01-21T04:20:48.189Z,-1.11
2017-01-21T04:21:48.150Z,-1.2
2017-01-21T04:22:48.130Z,-1.17
2017-01-21T04:23:47.704Z,-1.17
2017-01-21T04:24:48.080Z,-1.11
2017-01-21T04:25:48.079Z,-1.13
2017-01-21T04:26:48.016Z,-1.11
2017-01-21T04:27:47.987Z,-1.11
2017-01-21T04:28:47.958Z,-1.2
2017-01-21T04:29:47.524Z,-1.2
2017-01-21T04:30:47.899Z,-1.15
2017-01-21T04:31:47.872Z,-1.17
2017-01-21T04:32:47.445Z,-1.13
2017-01-21T04:33:47.816Z,-1.13
2017-01-21T04:34:47.782Z,-1.1
2017-01-21T04:35:47.359Z,-1.15
2017-01-21T04:36:47.722Z,-1.13
2017-01-21T04:37:47.749Z,-1.15
2017-01-21T04:38:47.964Z,-1.13
2017-01-21T04:39:47.230Z,-1.18
2017-01-21T04:40:47.600Z,-1.14
2017-01-21T04:41:47.576Z,-1.15
2017-01-21T04:42:47.151Z,-1.23
2017-01-21T04:43:47.564Z,-1.25
2017-01-21T04:44:47.485Z,-1.14
2017-01-21T04:45:47.457Z,-1.13
2017-01-21T04:46:47.430Z,-1.18
2017-01-21T04:47:47.398Z,-1.25
2017-01-21T04:48:47.404Z,-1.23
2017-01-21T04:49:47.344Z,-1.13
2017-01-21T04:50:46.917Z,-1.29
2017-01-21T04:51:47.280Z,-1.39
2017-01-21T04:52:47.262Z,-1.36
2017-01-21T04:53:47.220Z,-1.41
2017-01-21T04:54:47.201Z,-1.39
2017-01-21T04:55:47.161Z,-1.31
2017-01-21T04:56:47.144Z,-1.46
2017-01-21T04:57:47.109Z,-1.33
2017-01-21T04:58:46.682Z,-1.38
2017-01-21T04:59:47.053Z,-1.46
2017-01-21T05:00:46.619Z,-1.44
2017-01-21T05:01:47.002Z,-1.41
2017-01-21T05:02:46.966Z,-1.38
2017-01-21T05:03:46.984Z,-1.43
2017-01-21T05:04:46.906Z,-1.41
2017-01-21T05:05:46.862Z,-1.41
2017-01-21T05:06:46.446Z,-1.47
2017-01-21T05:07:46.813Z,-1.43
2017-01-21T05:08:46.785Z,-1.44
2017-01-21T05:09:46.757Z,-1.49
2017-01-21T05:10:46.781Z,-1.54
2017-01-21T05:11:46.697Z,-1.43
2017-01-21T05:12:46.704Z,-1.49
2017-01-21T05:13:46.634Z,-1.5
2017-01-21T05:14:46.610Z,-1.49
2017-01-21T05:15:46.583Z,-1.43
2017-01-21T05:16:46.551Z,-1.36
2017-01-21T05:17:46.572Z,-1.35
2017-01-21T05:18:46.492Z,-1.38
2017-01-21T05:19:46.458Z,-1.53
2017-01-21T05:20:46.083Z,-1.39
2017-01-21T05:21:46.401Z,-1.39
2017-01-21T05:22:46.378Z,-1.44
2017-01-21T05:23:45.545Z,-1.44
2017-01-21T05:24:45.916Z,-1.51
2017-01-21T05:25:46.279Z,-1.49
2017-01-21T05:26:46.335Z,-1.54
2017-01-21T05:27:46.224Z,-1.61
2017-01-21T05:28:46.197Z,-1.51
2017-01-21T05:29:45.769Z,-1.51
2017-01-21T05:30:46.145Z,-1.57
2017-01-21T05:31:46.120Z,-1.5
2017-01-21T05:32:46.073Z,-1.53
2017-01-21T05:33:46.052Z,-1.53
2017-01-21T05:34:46.024Z,-1.54
2017-01-21T05:35:45.987Z,-1.59
2017-01-21T05:36:45.961Z,-1.49
2017-01-21T05:37:45.979Z,-1.53
2017-01-21T05:38:45.504Z,-1.56
2017-01-21T05:39:45.474Z,-1.61
2017-01-21T05:40:45.844Z,-1.54
2017-01-21T05:41:45.812Z,-1.61
2017-01-21T05:42:45.782Z,-1.64
2017-01-21T05:43:45.351Z,-1.56
2017-01-21T05:44:45.758Z,-1.61
2017-01-21T05:45:45.695Z,-1.44
2017-01-21T05:46:45.264Z,-1.46
2017-01-21T05:47:45.640Z,-1.46
2017-01-21T05:48:45.209Z,-1.43
2017-01-21T05:49:45.574Z,-1.46
2017-01-21T05:50:45.547Z,-1.46
2017-01-21T05:51:45.516Z,-1.43
2017-01-21T05:52:45.500Z,-1.39
2017-01-21T05:53:45.117Z,-1.47
2017-01-21T05:54:45.434Z,-1.43
2017-01-21T05:55:45.405Z,-1.44
2017-01-21T05:56:45.375Z,-1.41
2017-01-21T05:57:45.338Z,-1.38
2017-01-21T05:58:44.939Z,-1.44
2017-01-21T05:59:45.281Z,-1.39
2017-01-21T06:00:44.856Z,-1.41
2017-01-21T06:01:44.821Z,-1.39
2017-01-21T06:02:45.191Z,-1.33
2017-01-21T06:03:45.167Z,-1.32
2017-01-21T06:04:44.734Z,-1.39
2017-01-21T06:05:45.134Z,-1.41
2017-01-21T06:06:44.681Z,-1.44
2017-01-21T06:07:45.052Z,-1.47
2017-01-21T06:08:45.025Z,-1.44
2017-01-21T06:09:44.591Z,-1.46
2017-01-21T06:10:44.564Z,-1.46
2017-01-21T06:11:44.936Z,-1.51
2017-01-21T06:12:44.504Z,-1.54
2017-01-21T06:13:44.480Z,-1.47
2017-01-21T06:14:44.839Z,-1.46
2017-01-21T06:15:44.814Z,-1.46
2017-01-21T06:16:44.785Z,-1.43
2017-01-21T06:17:44.752Z,-1.39
2017-01-21T06:18:44.328Z,-1.44
2017-01-21T06:19:44.701Z,-1.46
2017-01-21T06:20:44.262Z,-1.41
2017-01-21T06:21:44.638Z,-1.49
2017-01-21T06:22:44.207Z,-1.39
2017-01-21T06:23:44.576Z,-1.39
2017-01-21T06:24:44.549Z,-1.41
2017-01-21T06:25:44.174Z,-1.32
2017-01-21T06:26:44.092Z,-1.49
2017-01-21T06:27:44.461Z,-1.33
2017-01-21T06:28:44.427Z,-1.36
2017-01-21T06:29:44.403Z,-1.38
2017-01-21T06:30:43.577Z,-1.46
2017-01-21T06:31:43.950Z,-1.49
2017-01-21T06:32:44.311Z,-1.5
2017-01-21T06:33:44.286Z,-1.54
2017-01-21T06:34:44.256Z,-1.49
2017-01-21T06:35:44.221Z,-1.57
2017-01-21T06:36:44.198Z,-1.43
2017-01-21T06:37:44.166Z,-1.54
2017-01-21T06:38:44.138Z,-1.43
2017-01-21T06:39:44.209Z,-1.46
2017-01-21T06:40:44.092Z,-1.51
2017-01-21T06:41:44.051Z,-1.49
2017-01-21T06:42:44.021Z,-1.43
2017-01-21T06:43:44.032Z,-1.53
2017-01-21T06:44:43.960Z,-1.47
2017-01-21T06:45:43.939Z,-1.41
2017-01-21T06:46:44.210Z,-1.49
2017-01-21T06:47:43.474Z,-1.44
2017-01-21T06:48:44.195Z,-1.53
2017-01-21T06:49:43.413Z,-1.5
2017-01-21T06:50:43.388Z,-1.61
2017-01-21T06:51:43.753Z,-1.59
2017-01-21T06:52:43.324Z,-1.57
2017-01-21T06:53:43.696Z,-1.44
2017-01-21T06:54:43.271Z,-1.54
2017-01-21T06:55:43.642Z,-1.36
2017-01-21T06:56:43.211Z,-1.43
2017-01-21T06:57:43.182Z,-1.46
2017-01-21T06:58:43.145Z,-1.44
2017-01-21T06:59:43.121Z,-1.35
2017-01-21T07:00:43.490Z,-1.41
2017-01-21T07:01:43.068Z,-1.49
2017-01-21T07:02:43.468Z,-1.36
2017-01-21T07:03:43.406Z,-1.39
2017-01-21T07:04:42.973Z,-1.39
2017-01-21T07:05:42.939Z,-1.44
2017-01-21T07:06:43.317Z,-1.44
2017-01-21T07:07:43.295Z,-1.44
2017-01-21T07:08:43.256Z,-1.43
2017-01-21T07:09:43.276Z,-1.36
2017-01-21T07:10:43.201Z,-1.46
2017-01-21T07:11:43.170Z,-1.39
2017-01-21T07:12:43.043Z,-1.46
2017-01-21T07:13:43.109Z,-1.46
2017-01-21T07:14:43.083Z,-1.46
2017-01-21T07:15:43.408Z,-1.43
2017-01-21T07:16:43.022Z,-1.43
2017-01-21T07:17:42.997Z,-1.43
2017-01-21T07:18:42.966Z,-1.49
2017-01-21T07:19:42.934Z,-1.46
2017-01-21T07:20:42.103Z,-1.39
2017-01-21T07:21:42.870Z,-1.39
2017-01-21T07:22:42.876Z,-1.44
2017-01-21T07:23:42.428Z,-1.35
2017-01-21T07:24:42.390Z,-1.39
2017-01-21T07:25:42.755Z,-1.33
2017-01-21T07:26:42.722Z,-1.31
2017-01-21T07:27:42.295Z,-1.08
2017-01-21T07:28:42.672Z,-1.13
2017-01-21T07:29:42.637Z,-1.15
2017-01-21T07:30:42.609Z,-1.2
2017-01-21T07:31:42.583Z,-1.14
2017-01-21T07:32:42.159Z,-1.13
2017-01-21T07:33:42.133Z,-1.14
2017-01-21T07:34:42.496Z,-1.2
2017-01-21T07:35:42.063Z,-1.14
2017-01-21T07:36:42.432Z,-1.25
2017-01-21T07:37:42.414Z,-1.15
2017-01-21T07:38:42.378Z,-1.2
2017-01-21T07:39:41.998Z,-1.21
2017-01-21T07:40:42.316Z,-1.28
2017-01-21T07:41:41.885Z,-1.25
2017-01-21T07:42:42.264Z,-1.31
2017-01-21T07:43:41.832Z,-1.31
2017-01-21T07:44:42.203Z,-1.29
2017-01-21T07:45:42.168Z,-1.32
2017-01-21T07:46:42.191Z,-1.14
2017-01-21T07:47:41.718Z,-1
2017-01-21T07:48:42.085Z,-0.99
2017-01-21T07:49:42.057Z,-0.86
2017-01-21T07:50:42.035Z,-0.8
2017-01-21T07:51:41.999Z,-0.73
2017-01-21T07:52:41.972Z,-0.74
2017-01-21T07:53:41.940Z,-0.73
2017-01-21T07:54:41.507Z,-0.74
2017-01-21T07:55:41.883Z,-0.74
2017-01-21T07:56:41.857Z,-0.78
2017-01-21T07:57:41.430Z,-0.7
2017-01-21T07:58:41.793Z,-0.73
2017-01-21T07:59:41.771Z,-0.73
2017-01-21T08:00:41.401Z,-0.73
2017-01-21T08:01:41.718Z,-0.73
2017-01-21T08:02:41.280Z,-0.67
2017-01-21T08:03:41.257Z,-0.56
2017-01-21T08:04:41.228Z,-0.45
2017-01-21T08:05:41.197Z,-0.44
2017-01-21T08:06:41.565Z,-0.16
2017-01-21T08:07:41.543Z,0.01
2017-01-21T08:08:41.117Z,0.38
2017-01-21T08:09:41.788Z,0.75
2017-01-21T08:10:41.499Z,1.06
2017-01-21T08:11:41.429Z,1.34
2017-01-21T08:12:41.400Z,1.57
2017-01-21T08:13:41.452Z,1.88
2017-01-21T08:14:40.543Z,2.18
2017-01-21T08:15:41.316Z,2.43
2017-01-21T08:16:40.899Z,2.62
2017-01-21T08:17:41.259Z,2.87
2017-01-21T08:18:41.243Z,3.07
2017-01-21T08:19:40.807Z,3.22
2017-01-21T08:20:41.182Z,3.28
2017-01-21T08:21:40.763Z,3.54
2017-01-21T08:22:41.178Z,3.72
2017-01-21T08:23:41.106Z,3.96
2017-01-21T08:24:41.077Z,4.25
2017-01-21T08:25:41.106Z,4.54
2017-01-21T08:26:40.227Z,4.68
2017-01-21T08:27:41.011Z,4.97
2017-01-21T08:28:40.630Z,5.14
2017-01-21T08:29:40.954Z,5.27
2017-01-21T08:30:40.929Z,5.33
2017-01-21T08:31:40.904Z,5.38
2017-01-21T08:32:40.884Z,5.62
2017-01-21T08:33:40.859Z,5.59
2017-01-21T08:34:40.830Z,5.47
2017-01-21T08:35:40.857Z,5.58
2017-01-21T08:36:40.789Z,5.45
2017-01-21T08:37:40.366Z,5.47
2017-01-21T08:38:40.789Z,5.35
2017-01-21T08:39:40.715Z,5.38
2017-01-21T08:40:40.694Z,5.17
2017-01-21T08:41:40.665Z,5.23
2017-01-21T08:42:40.646Z,5.24
2017-01-21T08:43:40.672Z,5.24
2017-01-21T08:44:40.601Z,5.26
2017-01-21T08:45:40.588Z,5.33
2017-01-21T08:46:40.151Z,5.42
2017-01-21T08:47:40.537Z,5.45
2017-01-21T08:48:40.560Z,5.75
2017-01-21T08:49:40.538Z,5.75
2017-01-21T08:50:40.755Z,5.85
2017-01-21T08:51:40.043Z,5.8
2017-01-21T08:52:40.015Z,5.78
2017-01-21T08:53:39.994Z,5.87
2017-01-21T08:54:40.364Z,6.08
2017-01-21T08:55:39.945Z,6.3
2017-01-21T08:56:40.373Z,6.4
2017-01-21T08:57:39.898Z,6.54
2017-01-21T08:58:40.280Z,6.55
2017-01-21T08:59:40.257Z,6.55
2017-01-21T09:00:39.833Z,6.53
2017-01-21T09:01:40.219Z,6.45
2017-01-21T09:02:40.187Z,6.61
2017-01-21T09:03:39.766Z,6.58
2017-01-21T09:04:40.140Z,6.53
2017-01-21T09:05:39.725Z,6.14
2017-01-21T09:06:39.701Z,5.66
2017-01-21T09:07:40.079Z,5.22
2017-01-21T09:08:40.052Z,4.65
2017-01-21T09:09:40.038Z,4.35
2017-01-21T09:10:39.640Z,3.86
2017-01-21T09:11:39.588Z,3.56
2017-01-21T09:12:39.975Z,3.1
2017-01-21T09:13:39.939Z,2.74
2017-01-21T09:14:39.918Z,2.56
2017-01-21T09:15:39.893Z,2.38
2017-01-21T09:16:39.874Z,2.14
2017-01-21T09:17:39.500Z,1.98
2017-01-21T09:18:39.821Z,1.88
2017-01-21T09:19:39.826Z,1.72
2017-01-21T09:20:39.785Z,1.68
2017-01-21T09:21:39.763Z,1.7
2017-01-21T09:22:39.321Z,1.67
2017-01-21T09:23:39.709Z,1.61
2017-01-21T09:24:39.678Z,1.54
2017-01-21T09:25:39.999Z,1.5
2017-01-21T09:26:39.720Z,1.6
2017-01-21T09:27:39.596Z,1.42
2017-01-21T09:28:39.573Z,1.52
2017-01-21T09:29:39.546Z,1.54
2017-01-21T09:30:39.119Z,1.44
2017-01-21T09:31:39.500Z,1.54
2017-01-21T09:32:39.469Z,1.57
2017-01-21T09:33:39.499Z,1.54
2017-01-21T09:34:39.017Z,1.57
2017-01-21T09:35:39.398Z,1.49
2017-01-21T09:36:38.981Z,1.49
2017-01-21T09:37:39.341Z,1.61
2017-01-21T09:38:38.915Z,1.47
2017-01-21T09:39:38.887Z,1.64
2017-01-21T09:40:39.317Z,1.61
2017-01-21T09:41:39.236Z,1.54
2017-01-21T09:42:39.211Z,1.61
2017-01-21T09:43:39.186Z,1.54
2017-01-21T09:44:38.763Z,1.54
2017-01-21T09:45:39.183Z,1.65
2017-01-21T09:46:39.122Z,1.61
2017-01-21T09:47:39.079Z,1.52
2017-01-21T09:48:38.652Z,1.6
2017-01-21T09:49:38.627Z,1.53
2017-01-21T09:50:39.003Z,1.54
2017-01-21T09:51:38.972Z,1.54
2017-01-21T09:52:38.949Z,1.67
2017-01-21T09:53:38.538Z,1.7
2017-01-21T09:54:38.942Z,1.74
2017-01-21T09:55:38.863Z,1.75
2017-01-21T09:56:38.843Z,1.61
2017-01-21T09:57:38.858Z,1.71
2017-01-21T09:58:38.378Z,1.63
2017-01-21T09:59:38.363Z,1.79
2017-01-21T10:00:38.384Z,1.74
2017-01-21T10:01:38.699Z,1.9
2017-01-21T10:02:38.677Z,1.86
2017-01-21T10:03:38.647Z,1.88
2017-01-21T10:04:38.629Z,1.83
2017-01-21T10:05:38.599Z,1.82
2017-01-21T10:06:38.570Z,1.79
2017-01-21T10:07:38.542Z,1.93
2017-01-21T10:08:38.119Z,1.88
2017-01-21T10:09:38.491Z,1.9
2017-01-21T10:10:38.067Z,1.9
2017-01-21T10:11:37.640Z,1.9
2017-01-21T10:12:38.407Z,2.02
2017-01-21T10:13:38.382Z,1.98
2017-01-21T10:14:37.959Z,2.02
2017-01-21T10:15:38.324Z,1.98
2017-01-21T10:16:38.304Z,2.12
2017-01-21T10:17:38.277Z,2.08
2017-01-21T10:18:38.250Z,2.08
2017-01-21T10:19:37.827Z,2.14
2017-01-21T10:20:38.197Z,2.18
2017-01-21T10:21:38.167Z,2.15
2017-01-21T10:22:37.738Z,2.26
2017-01-21T10:23:38.114Z,2.32
2017-01-21T10:24:38.092Z,2.3
2017-01-21T10:25:37.665Z,2.3
2017-01-21T10:26:37.637Z,2.33
2017-01-21T10:27:37.614Z,2.47
2017-01-21T10:28:37.640Z,2.41
2017-01-21T10:29:37.957Z,2.4
2017-01-21T10:30:37.927Z,2.47
2017-01-21T10:31:37.950Z,2.38
2017-01-21T10:32:37.875Z,2.45
2017-01-21T10:33:37.857Z,2.45
2017-01-21T10:34:37.420Z,2.53
2017-01-21T10:35:37.805Z,2.53
2017-01-21T10:36:37.773Z,2.5
2017-01-21T10:37:36.960Z,2.62
2017-01-21T10:38:37.323Z,2.55
2017-01-21T10:39:37.310Z,2.58
2017-01-21T10:40:37.319Z,2.58
2017-01-21T10:41:37.239Z,2.62
2017-01-21T10:42:37.611Z,2.63
2017-01-21T10:43:37.592Z,2.58
2017-01-21T10:44:37.564Z,2.69
2017-01-21T10:45:37.535Z,2.69
2017-01-21T10:46:37.512Z,2.77
2017-01-21T10:47:37.483Z,2.69
2017-01-21T10:48:37.503Z,2.73
2017-01-21T10:49:37.446Z,2.74
2017-01-21T10:50:37.455Z,2.81
2017-01-21T10:51:37.376Z,2.79
2017-01-21T10:52:37.353Z,2.86
2017-01-21T10:53:37.324Z,2.81
2017-01-21T10:54:37.298Z,2.84
2017-01-21T10:55:36.938Z,2.83
2017-01-21T10:56:36.854Z,2.84
2017-01-21T10:57:36.890Z,2.98
2017-01-21T10:58:37.193Z,2.97
2017-01-21T10:59:36.773Z,2.94
2017-01-21T11:00:36.820Z,2.97
2017-01-21T11:01:37.111Z,3.07
2017-01-21T11:02:36.695Z,2.95
2017-01-21T11:03:37.069Z,3.01
2017-01-21T11:04:36.646Z,3.04
2017-01-21T11:05:37.012Z,2.99
2017-01-21T11:06:36.984Z,3.05
2017-01-21T11:07:37.160Z,3.04
2017-01-21T11:08:36.535Z,3.1
2017-01-21T11:09:36.951Z,3.1
2017-01-21T11:10:36.887Z,3.12
2017-01-21T11:11:36.858Z,3.12
2017-01-21T11:12:36.823Z,3.2
2017-01-21T11:13:36.858Z,3.28
2017-01-21T11:14:36.773Z,3.2
2017-01-21T11:15:36.406Z,3.2
2017-01-21T11:16:36.741Z,3.2
2017-01-21T11:17:36.706Z,3.25
2017-01-21T11:18:36.680Z,3.25
2017-01-21T11:19:36.662Z,3.28
2017-01-21T11:20:36.242Z,3.25
2017-01-21T11:21:36.244Z,3.25
2017-01-21T11:22:36.201Z,3.33
2017-01-21T11:23:36.539Z,3.34
2017-01-21T11:24:36.115Z,3.37
2017-01-21T11:25:36.495Z,3.41
2017-01-21T11:26:36.461Z,3.39
2017-01-21T11:27:36.039Z,3.35
2017-01-21T11:28:36.410Z,3.46
2017-01-21T11:29:36.391Z,3.49
2017-01-21T11:30:36.360Z,3.59
2017-01-21T11:31:35.932Z,3.52
2017-01-21T11:32:36.312Z,3.57
2017-01-21T11:33:36.281Z,3.63
2017-01-21T11:34:36.254Z,3.67
2017-01-21T11:35:36.535Z,3.72
2017-01-21T11:36:35.806Z,3.7
2017-01-21T11:37:35.785Z,3.7
2017-01-21T11:38:36.606Z,3.63
2017-01-21T11:39:36.126Z,3.68
2017-01-21T11:40:36.102Z,3.7
2017-01-21T11:41:36.081Z,3.75
2017-01-21T11:42:36.038Z,3.72
2017-01-21T11:43:36.039Z,3.72
2017-01-21T11:44:36.052Z,3.75
2017-01-21T11:45:35.972Z,3.78
2017-01-21T11:46:35.949Z,3.82
2017-01-21T11:47:35.926Z,3.82
2017-01-21T11:48:36.042Z,3.81
2017-01-21T11:49:35.476Z,3.89
2017-01-21T11:50:35.447Z,3.89
2017-01-21T11:51:35.812Z,3.9
2017-01-21T11:52:35.800Z,3.92
2017-01-21T11:53:35.776Z,3.92
2017-01-21T11:54:35.795Z,3.92
2017-01-21T11:55:35.727Z,3.82
2017-01-21T11:56:35.690Z,4.02
2017-01-21T11:57:35.270Z,4
2017-01-21T11:58:35.246Z,4
2017-01-21T11:59:35.248Z,4.04
2017-01-21T12:00:35.597Z,4
2017-01-21T12:01:35.564Z,4.04
2017-01-21T12:02:35.537Z,4.06
2017-01-21T12:03:35.518Z,4.16
2017-01-21T12:04:35.087Z,4.1
2017-01-21T12:05:35.473Z,4.13
2017-01-21T12:06:35.444Z,4.21
2017-01-21T12:07:35.013Z,4.13
2017-01-21T12:08:35.387Z,4.14
2017-01-21T12:09:34.957Z,4.2
2017-01-21T12:10:35.358Z,4.2
2017-01-21T12:11:35.314Z,4.2
2017-01-21T12:12:35.278Z,4.28
2017-01-21T12:13:35.266Z,4.18
2017-01-21T12:14:35.231Z,4.17
2017-01-21T12:15:35.204Z,4.25
2017-01-21T12:16:34.779Z,4.26
2017-01-21T12:17:35.202Z,4.28
2017-01-21T12:18:35.127Z,4.25
2017-01-21T12:19:35.102Z,4.26
2017-01-21T12:20:35.109Z,4.31
2017-01-21T12:21:35.058Z,4.39
2017-01-21T12:22:35.028Z,4.28
2017-01-21T12:23:35.005Z,4.36
2017-01-21T12:24:34.975Z,4.38
2017-01-21T12:25:34.551Z,4.42
2017-01-21T12:26:34.926Z,4.36
2017-01-21T12:27:34.907Z,4.49
2017-01-21T12:28:34.888Z,4.56
2017-01-21T12:29:34.875Z,4.5
2017-01-21T12:30:34.828Z,4.51
2017-01-21T12:31:34.804Z,4.5
2017-01-21T12:32:34.779Z,4.46
2017-01-21T12:33:34.792Z,4.5
2017-01-21T12:34:34.728Z,4.49
2017-01-21T12:35:34.748Z,4.53
2017-01-21T12:36:34.331Z,4.61
2017-01-21T12:37:34.650Z,4.57
2017-01-21T12:38:34.625Z,4.49
2017-01-21T12:39:34.199Z,4.54
2017-01-21T12:40:34.570Z,4.59
2017-01-21T12:41:34.547Z,4.51
2017-01-21T12:42:34.122Z,4.5
2017-01-21T12:43:34.101Z,4.59
2017-01-21T12:44:34.472Z,4.5
2017-01-21T12:45:34.444Z,4.51
2017-01-21T12:46:34.473Z,4.5
2017-01-21T12:47:34.405Z,4.51
2017-01-21T12:48:34.377Z,4.5
2017-01-21T12:49:34.347Z,4.53
2017-01-21T12:50:33.922Z,4.54
2017-01-21T12:51:33.898Z,4.51
2017-01-21T12:52:33.880Z,4.56
2017-01-21T12:53:34.248Z,4.59
2017-01-21T12:54:34.226Z,4.61
2017-01-21T12:55:34.199Z,4.64
2017-01-21T12:56:34.218Z,4.61
2017-01-21T12:57:33.753Z,4.56
2017-01-21T12:58:34.172Z,4.65
2017-01-21T12:59:33.695Z,4.64
2017-01-21T13:00:33.669Z,4.68
2017-01-21T13:01:34.055Z,4.59
2017-01-21T13:02:34.018Z,4.61
2017-01-21T13:03:34.018Z,4.57
2017-01-21T13:04:34.025Z,4.62
2017-01-21T13:05:33.944Z,4.72
2017-01-21T13:06:33.525Z,4.79